Seattle, WA (98105)

1:58 PM PDT on April 29, 2017 (GMT -0700)
UW Integrated Design Lab, Bullitt Center | | Change Station

Elev 404 ft 47.61 °N, 122.31 °W | Updated 2 seconds ago

Overcast
Overcast
53.6 °F
Feels Like 53.6 °F
N
5.0
Wind Variable Wind from ESE
Gusts 6.0 mph

Today
High -- | Low -- °F
--% Chance of Precip.
Yesterday
High -- | Low -- °F
Precip. -- in
Pressure 30.19 in
Visibility 2.0 miles
Clouds Overcast 9000 ft
Dew Point 42.9 °F
Humidity 67%
Rainfall 0.00 in
Snow Depth Not available.
5:54 AM 8:19 PM
Waxing Crescent, 16% visible
METAR KBFI 292053Z AUTO 17006KT 2SM OVC090 12/07 A3019 RMK AO2 SLP221 T01220067 58025 $
Pressure 30.19 in
Visibility 2.0 miles
Clouds Overcast 9000 ft
Dew Point 42.9 °F
Humidity 67%
Rainfall 0.00 in
Snow Depth Not available.
5:54 AM 8:19 PM
Waxing Crescent, 16% visible
METAR KBFI 292053Z AUTO 17006KT 2SM OVC090 12/07 A3019 RMK AO2 SLP221 T01220067 58025 $

Get Severe Weather Alerts

Thanks for signing up!

Be on the lookout for a verification email in your inbox.

You'll start receiving the daily forecast at 8 AM.

×

10-Day Weather Forecast

Almanac

Astronomy

Apr. 29, 2017 Rise Set
Actual Time
Civil Twilight
Nautical Twilight
Astronomical Twilight
Moon
Length of Visible Light
Length of Day
Tomorrow will be .
, % of the Moon is Illuminated

Today's Extremes

State Highs State Lows

Community

WunderPhotos

WunderBlog® & News

Nearby

Air Quality

  Air Quality AQ Index Pollutant
Not available.

Snow Depth

Station Depth Elevation

Earthquake Activity

City Distance Mag. Time & Date
Minimum magnitude displayed is 2.5.

Coastal Water Temperatures

Place Temperature

Stations

Nearby Weather Stations

Station Location Temp. Windchill Dew Point Humidity Wind Precip. Elev Updated Type
                   

Watches & Warnings

There are currently no watches in effect.